LIRF Airport Information

Runway Information
Runway 07 Length 10849 ft width 148 ft
Elevation 7 ft Threshold 1365 ft Heading 70
Runway 25 Length 10849 ft Width 148 ft
Elevation 7 ft Threshold 0 ft Heading 250
Runway 16C Length 11818 ft width 148 ft
Elevation 11 ft Threshold 0 ft Heading 163
Runway 34C Length 11818 ft Width 148 ft
Elevation 4 ft Threshold 0 ft Heading 343
Runway 16L Length 12795 ft width 197 ft
Elevation 14 ft Threshold 0 ft Heading 163
Runway 34R Length 12795 ft Width 197 ft
Elevation 7 ft Threshold 0 ft Heading 343
Runway 16R Length 12795 ft width 197 ft
Elevation 7 ft Threshold 0 ft Heading 163
Runway 34L Length 12795 ft Width 197 ft
Elevation 8 ft Threshold 1053 ft Heading 343
Airport Frequencies
Type ARR Name ROMA DIREC Frequency 119.2 MHZ
Type ATIS Name ATIS Frequency 114.9 MHZ
Type CLD Name FIUME RAMP Frequency 121.725 MHZ
Type GND Name FIUME GND/ Frequency 121.8 MHZ
Type TWR Name FIUME TWR Frequency 118.7 MHZ
Airport Navaids
Type NDB Name Fiumicino Frequency 354 KHZ
Type NDB Name Fiumicino Frequency 421 KHZ
Type NDB Name Fiumicino Frequency 345 KHZ
Type VOR-DME Name Ostia Frequency 114900 KHZ
Type NDB Name Ostia Frequency 321 KHZ
Airport Weather Information & NOTAM
ADDS - METARS form results

(1849 UTC 11 May 2021)
Data provider http://aviationweather.gov/metar/data/
 
METAR text: LIRF 111820Z 17003KT CAVOK 16/15 Q1012 NOSIG
Conditions at: LIRF (ROME/FIUMICINO , IT) observed 1820 UTC 11 May 2021
Temperature: 16.0°C (61°F)
Dewpoint: 15.0°C (59°F) [RH = 94%]
Pressure (altimeter): 29.88 inches Hg (1012.0 mb)
Winds: from the S (170 degrees) at 3 MPH (3 knots; 1.5 m/s)
Visibility: 6 or more miles (10+ km)
Ceiling: ceiling and visibility are OK
Clouds: unknown
Weather: no significant weather observed at this time

METAR text: LIRF 111750Z 15006KT 9999 FEW010 17/15 Q1012 NOSIG
Conditions at: LIRF (ROME/FIUMICINO , IT) observed 1750 UTC 11 May 2021
Temperature: 17.0°C (63°F)
Dewpoint: 15.0°C (59°F) [RH = 88%]
Pressure (altimeter): 29.88 inches Hg (1012.0 mb)
Winds: from the SSE (150 degrees) at 7 MPH (6 knots; 3.1 m/s)
Visibility: 6 or more miles (10+ km)
Ceiling: at least 12,000 feet AGL
Clouds: few clouds at 1000 feet AGL
Weather: no significant weather observed at this time

Forecast for: LIRF (ROME/FIUMICINO , IT)
Text: TAF LIRF 111700Z 1118/1224 25013KT 9999 SCT030
Forecast period: 1800 UTC 11 May 2021 to 0000 UTC 13 May 2021
Forecast type: FROM: standard forecast or significant change
Winds: from the WSW (250 degrees) at 15 MPH (13 knots; 6.7 m/s)
Visibility: 6 or more miles (10+ km)
Ceiling: at least 12,000 feet AGL
Clouds: scattered clouds at 3000 feet AGL
Weather: no significant weather forecast for this period
Text: TEMPO 1118/1121 SHRA
Forecast period: 1800 to 2100 UTC 11 May 2021
Forecast type: TEMPORARY: The following changes expected for less than half the time period
Visibility: missing
Ceiling: unknown
Clouds: missing
Weather: SHRA  (rain showers)